sensor_id;sensor_type;location;lat;lon;timestamp;P1;durP1;ratioP1;P2;durP2;ratioP2
55609;SDS011;41486;52.502;13.486;2023-02-28T00:01:27;2.28;;;1.42;;
55609;SDS011;41486;52.502;13.486;2023-02-28T00:03:56;2.88;;;1.60;;
55609;SDS011;41486;52.502;13.486;2023-02-28T00:06:24;2.90;;;1.38;;
55609;SDS011;41486;52.502;13.486;2023-02-28T00:08:52;4.13;;;2.00;;
55609;SDS011;41486;52.502;13.486;2023-02-28T00:11:20;2.03;;;1.30;;
55609;SDS011;41486;52.502;13.486;2023-02-28T00:13:49;3.70;;;1.65;;
55609;SDS011;41486;52.502;13.486;2023-02-28T00:16:19;5.05;;;1.95;;
55609;SDS011;41486;52.502;13.486;2023-02-28T00:18:49;2.75;;;1.73;;
55609;SDS011;41486;52.502;13.486;2023-02-28T00:21:18;2.92;;;1.52;;
55609;SDS011;41486;52.502;13.486;2023-02-28T00:23:47;3.22;;;1.63;;
55609;SDS011;41486;52.502;13.486;2023-02-28T00:26:15;2.85;;;1.65;;
55609;SDS011;41486;52.502;13.486;2023-02-28T00:28:45;2.78;;;1.83;;
55609;SDS011;41486;52.502;13.486;2023-02-28T00:31:15;3.10;;;1.48;;
55609;SDS011;41486;52.502;13.486;2023-02-28T00:33:44;4.22;;;2.00;;
55609;SDS011;41486;52.502;13.486;2023-02-28T00:36:13;4.43;;;1.67;;
55609;SDS011;41486;52.502;13.486;2023-02-28T00:38:41;5.75;;;1.95;;
55609;SDS011;41486;52.502;13.486;2023-02-28T00:41:10;2.92;;;1.40;;
55609;SDS011;41486;52.502;13.486;2023-02-28T00:43:38;4.60;;;1.45;;
55609;SDS011;41486;52.502;13.486;2023-02-28T00:46:07;2.90;;;2.00;;
55609;SDS011;41486;52.502;13.486;2023-02-28T00:48:35;5.15;;;1.92;;
55609;SDS011;41486;52.502;13.486;2023-02-28T00:51:05;4.88;;;2.78;;
55609;SDS011;41486;52.502;13.486;2023-02-28T00:53:33;4.25;;;1.70;;
55609;SDS011;41486;52.502;13.486;2023-02-28T00:56:01;3.67;;;2.13;;
55609;SDS011;41486;52.502;13.486;2023-02-28T00:58:31;2.83;;;1.80;;
55609;SDS011;41486;52.502;13.486;2023-02-28T01:00:59;2.67;;;1.75;;
55609;SDS011;41486;52.502;13.486;2023-02-28T01:03:27;2.25;;;1.45;;
55609;SDS011;41486;52.502;13.486;2023-02-28T01:05:55;5.78;;;1.63;;
55609;SDS011;41486;52.502;13.486;2023-02-28T01:08:25;3.03;;;1.73;;
55609;SDS011;41486;52.502;13.486;2023-02-28T01:10:53;3.33;;;1.98;;
55609;SDS011;41486;52.502;13.486;2023-02-28T01:13:21;4.18;;;1.77;;
55609;SDS011;41486;52.502;13.486;2023-02-28T01:15:51;4.38;;;1.85;;
55609;SDS011;41486;52.502;13.486;2023-02-28T01:18:22;4.80;;;1.90;;
55609;SDS011;41486;52.502;13.486;2023-02-28T01:20:53;4.05;;;2.30;;
55609;SDS011;41486;52.502;13.486;2023-02-28T01:23:22;3.50;;;1.77;;
55609;SDS011;41486;52.502;13.486;2023-02-28T01:25:52;4.07;;;1.90;;
55609;SDS011;41486;52.502;13.486;2023-02-28T01:28:20;3.10;;;1.98;;
55609;SDS011;41486;52.502;13.486;2023-02-28T01:30:49;6.05;;;2.20;;
55609;SDS011;41486;52.502;13.486;2023-02-28T01:33:17;3.28;;;1.90;;
55609;SDS011;41486;52.502;13.486;2023-02-28T01:35:46;3.72;;;2.05;;
55609;SDS011;41486;52.502;13.486;2023-02-28T01:38:15;4.07;;;2.30;;
55609;SDS011;41486;52.502;13.486;2023-02-28T01:40:49;4.07;;;2.20;;
55609;SDS011;41486;52.502;13.486;2023-02-28T01:43:21;2.75;;;2.13;;
55609;SDS011;41486;52.502;13.486;2023-02-28T01:45:51;4.07;;;2.47;;
55609;SDS011;41486;52.502;13.486;2023-02-28T01:48:21;3.40;;;1.67;;
55609;SDS011;41486;52.502;13.486;2023-02-28T01:50:53;3.78;;;2.30;;
55609;SDS011;41486;52.502;13.486;2023-02-28T01:53:27;3.90;;;1.67;;
55609;SDS011;41486;52.502;13.486;2023-02-28T01:55:59;2.97;;;2.15;;
55609;SDS011;41486;52.502;13.486;2023-02-28T01:58:31;4.10;;;1.92;;
55609;SDS011;41486;52.502;13.486;2023-02-28T02:00:59;3.03;;;2.08;;
55609;SDS011;41486;52.502;13.486;2023-02-28T02:03:29;5.57;;;2.30;;
55609;SDS011;41486;52.502;13.486;2023-02-28T02:05:58;5.93;;;2.40;;
55609;SDS011;41486;52.502;13.486;2023-02-28T02:08:28;3.80;;;2.55;;
55609;SDS011;41486;52.502;13.486;2023-02-28T02:10:57;4.03;;;2.47;;
55609;SDS011;41486;52.502;13.486;2023-02-28T02:13:32;4.80;;;2.53;;
55609;SDS011;41486;52.502;13.486;2023-02-28T02:16:12;4.93;;;2.72;;
55609;SDS011;41486;52.502;13.486;2023-02-28T02:18:52;5.47;;;2.40;;
55609;SDS011;41486;52.502;13.486;2023-02-28T02:30:48;3.75;;;2.63;;
55609;SDS011;41486;52.502;13.486;2023-02-28T02:36:42;3.65;;;2.30;;
55609;SDS011;41486;52.502;13.486;2023-02-28T02:39:18;3.10;;;2.55;;
55609;SDS011;41486;52.502;13.486;2023-02-28T02:41:51;2.88;;;2.30;;
55609;SDS011;41486;52.502;13.486;2023-02-28T02:44:21;3.58;;;2.80;;
55609;SDS011;41486;52.502;13.486;2023-02-28T02:49:35;5.10;;;2.90;;
55609;SDS011;41486;52.502;13.486;2023-02-28T02:52:08;4.28;;;2.55;;
55609;SDS011;41486;52.502;13.486;2023-02-28T02:54:40;9.48;;;3.25;;
55609;SDS011;41486;52.502;13.486;2023-02-28T02:57:12;5.25;;;2.65;;
55609;SDS011;41486;52.502;13.486;2023-02-28T02:59:44;5.55;;;3.13;;
55609;SDS011;41486;52.502;13.486;2023-02-28T03:02:13;3.53;;;2.30;;
55609;SDS011;41486;52.502;13.486;2023-02-28T03:04:47;4.10;;;2.85;;
55609;SDS011;41486;52.502;13.486;2023-02-28T03:07:20;3.75;;;2.25;;
55609;SDS011;41486;52.502;13.486;2023-02-28T03:09:50;4.78;;;2.47;;
55609;SDS011;41486;52.502;13.486;2023-02-28T03:12:20;5.47;;;3.15;;
55609;SDS011;41486;52.502;13.486;2023-02-28T03:14:52;4.28;;;2.40;;
55609;SDS011;41486;52.502;13.486;2023-02-28T03:17:38;5.07;;;2.80;;
55609;SDS011;41486;52.502;13.486;2023-02-28T03:20:35;8.50;;;3.08;;
55609;SDS011;41486;52.502;13.486;2023-02-28T03:23:10;6.65;;;3.20;;
55609;SDS011;41486;52.502;13.486;2023-02-28T03:25:51;5.30;;;3.33;;
55609;SDS011;41486;52.502;13.486;2023-02-28T03:28:27;6.57;;;3.17;;
55609;SDS011;41486;52.502;13.486;2023-02-28T03:31:00;4.55;;;2.90;;
55609;SDS011;41486;52.502;13.486;2023-02-28T03:33:36;4.45;;;2.50;;
55609;SDS011;41486;52.502;13.486;2023-02-28T03:36:11;3.97;;;2.65;;
55609;SDS011;41486;52.502;13.486;2023-02-28T03:38:43;3.80;;;2.88;;
55609;SDS011;41486;52.502;13.486;2023-02-28T03:41:14;5.18;;;2.63;;
55609;SDS011;41486;52.502;13.486;2023-02-28T03:43:46;6.47;;;2.97;;
55609;SDS011;41486;52.502;13.486;2023-02-28T03:46:19;4.60;;;2.65;;
55609;SDS011;41486;52.502;13.486;2023-02-28T03:48:53;3.10;;;2.33;;
55609;SDS011;41486;52.502;13.486;2023-02-28T03:51:30;4.63;;;2.33;;
55609;SDS011;41486;52.502;13.486;2023-02-28T03:54:01;5.20;;;2.60;;
55609;SDS011;41486;52.502;13.486;2023-02-28T03:56:37;5.95;;;2.65;;
55609;SDS011;41486;52.502;13.486;2023-02-28T03:59:10;3.83;;;2.35;;
55609;SDS011;41486;52.502;13.486;2023-02-28T04:01:43;4.75;;;2.88;;
55609;SDS011;41486;52.502;13.486;2023-02-28T04:04:13;6.05;;;2.88;;
55609;SDS011;41486;52.502;13.486;2023-02-28T04:06:47;3.35;;;2.25;;
55609;SDS011;41486;52.502;13.486;2023-02-28T04:09:20;4.78;;;3.13;;
55609;SDS011;41486;52.502;13.486;2023-02-28T04:11:51;3.30;;;2.92;;
55609;SDS011;41486;52.502;13.486;2023-02-28T04:14:20;8.48;;;3.20;;
55609;SDS011;41486;52.502;13.486;2023-02-28T04:16:49;5.80;;;3.35;;
55609;SDS011;41486;52.502;13.486;2023-02-28T04:19:18;5.03;;;2.80;;
55609;SDS011;41486;52.502;13.486;2023-02-28T04:21:48;3.45;;;2.75;;
55609;SDS011;41486;52.502;13.486;2023-02-28T04:24:19;4.13;;;3.40;;
55609;SDS011;41486;52.502;13.486;2023-02-28T04:26:50;5.80;;;3.22;;
55609;SDS011;41486;52.502;13.486;2023-02-28T04:29:20;5.72;;;3.22;;
55609;SDS011;41486;52.502;13.486;2023-02-28T04:31:50;4.35;;;2.75;;
55609;SDS011;41486;52.502;13.486;2023-02-28T04:34:19;5.60;;;2.72;;
55609;SDS011;41486;52.502;13.486;2023-02-28T04:36:50;5.05;;;2.72;;
55609;SDS011;41486;52.502;13.486;2023-02-28T04:39:38;10.10;;;3.15;;
55609;SDS011;41486;52.502;13.486;2023-02-28T04:42:07;5.40;;;2.53;;
55609;SDS011;41486;52.502;13.486;2023-02-28T04:44:35;4.82;;;3.00;;
55609;SDS011;41486;52.502;13.486;2023-02-28T04:47:03;4.68;;;2.50;;
55609;SDS011;41486;52.502;13.486;2023-02-28T04:49:31;5.45;;;2.88;;
55609;SDS011;41486;52.502;13.486;2023-02-28T04:52:00;5.20;;;3.20;;
55609;SDS011;41486;52.502;13.486;2023-02-28T04:54:28;7.57;;;3.65;;
55609;SDS011;41486;52.502;13.486;2023-02-28T04:56:56;7.05;;;3.63;;
55609;SDS011;41486;52.502;13.486;2023-02-28T04:59:24;5.63;;;3.42;;
55609;SDS011;41486;52.502;13.486;2023-02-28T05:01:52;5.90;;;3.13;;
55609;SDS011;41486;52.502;13.486;2023-02-28T05:04:20;6.68;;;4.03;;
55609;SDS011;41486;52.502;13.486;2023-02-28T05:06:48;5.68;;;3.47;;
55609;SDS011;41486;52.502;13.486;2023-02-28T05:09:18;6.18;;;3.55;;
55609;SDS011;41486;52.502;13.486;2023-02-28T05:11:46;6.13;;;2.95;;
55609;SDS011;41486;52.502;13.486;2023-02-28T05:14:14;7.55;;;3.97;;
55609;SDS011;41486;52.502;13.486;2023-02-28T05:16:42;7.30;;;3.25;;
55609;SDS011;41486;52.502;13.486;2023-02-28T05:19:10;7.60;;;3.70;;
55609;SDS011;41486;52.502;13.486;2023-02-28T05:21:38;8.82;;;3.22;;
55609;SDS011;41486;52.502;13.486;2023-02-28T05:24:09;5.10;;;3.45;;
55609;SDS011;41486;52.502;13.486;2023-02-28T05:26:41;8.15;;;4.40;;
55609;SDS011;41486;52.502;13.486;2023-02-28T05:29:10;6.18;;;3.55;;
55609;SDS011;41486;52.502;13.486;2023-02-28T05:31:38;5.93;;;3.10;;
55609;SDS011;41486;52.502;13.486;2023-02-28T05:34:06;9.70;;;3.55;;
55609;SDS011;41486;52.502;13.486;2023-02-28T05:36:34;8.80;;;3.78;;
55609;SDS011;41486;52.502;13.486;2023-02-28T05:39:04;5.47;;;3.40;;
55609;SDS011;41486;52.502;13.486;2023-02-28T05:41:33;6.97;;;4.20;;
55609;SDS011;41486;52.502;13.486;2023-02-28T05:44:03;5.57;;;3.35;;
55609;SDS011;41486;52.502;13.486;2023-02-28T05:46:31;6.90;;;3.40;;
55609;SDS011;41486;52.502;13.486;2023-02-28T05:48:59;7.55;;;4.18;;
55609;SDS011;41486;52.502;13.486;2023-02-28T05:51:27;4.63;;;3.00;;
55609;SDS011;41486;52.502;13.486;2023-02-28T05:53:58;8.43;;;3.85;;
55609;SDS011;41486;52.502;13.486;2023-02-28T05:56:27;6.22;;;4.28;;
55609;SDS011;41486;52.502;13.486;2023-02-28T06:01:52;6.20;;;3.40;;
55609;SDS011;41486;52.502;13.486;2023-02-28T06:04:20;5.88;;;3.80;;
55609;SDS011;41486;52.502;13.486;2023-02-28T06:06:57;7.03;;;3.72;;
55609;SDS011;41486;52.502;13.486;2023-02-28T06:09:28;6.80;;;4.07;;
55609;SDS011;41486;52.502;13.486;2023-02-28T06:11:57;8.50;;;3.85;;
55609;SDS011;41486;52.502;13.486;2023-02-28T06:14:27;10.88;;;3.75;;
55609;SDS011;41486;52.502;13.486;2023-02-28T06:16:55;3.97;;;2.78;;
55609;SDS011;41486;52.502;13.486;2023-02-28T06:19:24;7.28;;;3.90;;
55609;SDS011;41486;52.502;13.486;2023-02-28T06:21:53;9.20;;;4.10;;
55609;SDS011;41486;52.502;13.486;2023-02-28T06:24:22;7.68;;;3.88;;
55609;SDS011;41486;52.502;13.486;2023-02-28T06:26:51;6.97;;;3.50;;
55609;SDS011;41486;52.502;13.486;2023-02-28T06:29:19;6.82;;;3.78;;
55609;SDS011;41486;52.502;13.486;2023-02-28T06:31:48;5.90;;;3.35;;
55609;SDS011;41486;52.502;13.486;2023-02-28T06:34:19;6.32;;;3.58;;
55609;SDS011;41486;52.502;13.486;2023-02-28T06:36:51;7.22;;;3.67;;
55609;SDS011;41486;52.502;13.486;2023-02-28T06:39:20;6.25;;;2.97;;
55609;SDS011;41486;52.502;13.486;2023-02-28T06:41:48;7.82;;;4.40;;
55609;SDS011;41486;52.502;13.486;2023-02-28T06:44:21;17.83;;;9.65;;
55609;SDS011;41486;52.502;13.486;2023-02-28T06:46:51;8.40;;;4.22;;
55609;SDS011;41486;52.502;13.486;2023-02-28T06:49:19;7.32;;;3.92;;
55609;SDS011;41486;52.502;13.486;2023-02-28T06:51:47;23.90;;;5.15;;
55609;SDS011;41486;52.502;13.486;2023-02-28T06:54:16;9.35;;;6.85;;
55609;SDS011;41486;52.502;13.486;2023-02-28T06:56:44;8.30;;;4.57;;
55609;SDS011;41486;52.502;13.486;2023-02-28T06:59:13;11.43;;;4.40;;
55609;SDS011;41486;52.502;13.486;2023-02-28T07:01:41;10.00;;;5.38;;
55609;SDS011;41486;52.502;13.486;2023-02-28T07:04:10;11.95;;;4.90;;
55609;SDS011;41486;52.502;13.486;2023-02-28T07:06:48;15.73;;;5.22;;
55609;SDS011;41486;52.502;13.486;2023-02-28T07:09:16;9.38;;;4.82;;
55609;SDS011;41486;52.502;13.486;2023-02-28T07:11:45;8.68;;;5.10;;
55609;SDS011;41486;52.502;13.486;2023-02-28T07:14:13;13.50;;;5.75;;
55609;SDS011;41486;52.502;13.486;2023-02-28T07:16:41;14.73;;;6.47;;
55609;SDS011;41486;52.502;13.486;2023-02-28T07:19:11;16.17;;;5.78;;
55609;SDS011;41486;52.502;13.486;2023-02-28T07:21:39;12.05;;;4.95;;
55609;SDS011;41486;52.502;13.486;2023-02-28T07:24:07;10.23;;;4.68;;
55609;SDS011;41486;52.502;13.486;2023-02-28T07:26:35;9.77;;;4.45;;
55609;SDS011;41486;52.502;13.486;2023-02-28T07:29:03;11.77;;;5.28;;
55609;SDS011;41486;52.502;13.486;2023-02-28T07:31:33;7.78;;;4.38;;
55609;SDS011;41486;52.502;13.486;2023-02-28T07:34:01;5.85;;;4.47;;
55609;SDS011;41486;52.502;13.486;2023-02-28T07:36:31;9.75;;;4.60;;
55609;SDS011;41486;52.502;13.486;2023-02-28T07:38:59;9.82;;;4.18;;
55609;SDS011;41486;52.502;13.486;2023-02-28T07:41:27;10.77;;;4.80;;
55609;SDS011;41486;52.502;13.486;2023-02-28T07:43:56;14.77;;;6.18;;
55609;SDS011;41486;52.502;13.486;2023-02-28T07:46:26;10.63;;;4.60;;
55609;SDS011;41486;52.502;13.486;2023-02-28T07:49:03;5.32;;;4.00;;
55609;SDS011;41486;52.502;13.486;2023-02-28T07:51:33;5.82;;;3.60;;
55609;SDS011;41486;52.502;13.486;2023-02-28T07:54:02;10.43;;;4.13;;
55609;SDS011;41486;52.502;13.486;2023-02-28T07:56:30;6.30;;;4.05;;
55609;SDS011;41486;52.502;13.486;2023-02-28T07:58:58;8.23;;;3.58;;
55609;SDS011;41486;52.502;13.486;2023-02-28T08:01:27;6.07;;;3.30;;
55609;SDS011;41486;52.502;13.486;2023-02-28T08:03:56;6.25;;;2.72;;
55609;SDS011;41486;52.502;13.486;2023-02-28T08:06:24;5.80;;;2.92;;
55609;SDS011;41486;52.502;13.486;2023-02-28T08:08:54;13.27;;;3.00;;
55609;SDS011;41486;52.502;13.486;2023-02-28T08:11:23;2.42;;;1.65;;
55609;SDS011;41486;52.502;13.486;2023-02-28T08:13:51;8.25;;;2.42;;
55609;SDS011;41486;52.502;13.486;2023-02-28T08:16:19;3.97;;;2.35;;
55609;SDS011;41486;52.502;13.486;2023-02-28T08:18:49;4.50;;;1.63;;
55609;SDS011;41486;52.502;13.486;2023-02-28T08:21:23;5.25;;;2.05;;
55609;SDS011;41486;52.502;13.486;2023-02-28T08:23:51;7.97;;;2.72;;
55609;SDS011;41486;52.502;13.486;2023-02-28T08:26:20;5.85;;;2.00;;
55609;SDS011;41486;52.502;13.486;2023-02-28T08:28:48;3.22;;;1.85;;
55609;SDS011;41486;52.502;13.486;2023-02-28T08:31:17;4.03;;;2.20;;
55609;SDS011;41486;52.502;13.486;2023-02-28T08:33:46;3.00;;;2.13;;
55609;SDS011;41486;52.502;13.486;2023-02-28T08:36:17;4.00;;;2.53;;
55609;SDS011;41486;52.502;13.486;2023-02-28T08:38:45;7.38;;;4.28;;
55609;SDS011;41486;52.502;13.486;2023-02-28T08:41:13;3.53;;;2.50;;
55609;SDS011;41486;52.502;13.486;2023-02-28T08:43:43;6.50;;;3.58;;
55609;SDS011;41486;52.502;13.486;2023-02-28T08:46:11;3.03;;;2.13;;
55609;SDS011;41486;52.502;13.486;2023-02-28T08:48:41;4.20;;;2.00;;
55609;SDS011;41486;52.502;13.486;2023-02-28T08:51:10;5.60;;;1.92;;
55609;SDS011;41486;52.502;13.486;2023-02-28T08:53:40;3.67;;;1.25;;
55609;SDS011;41486;52.502;13.486;2023-02-28T08:56:09;8.90;;;3.30;;
55609;SDS011;41486;52.502;13.486;2023-02-28T08:58:43;5.03;;;1.60;;
55609;SDS011;41486;52.502;13.486;2023-02-28T09:01:12;2.15;;;1.48;;
55609;SDS011;41486;52.502;13.486;2023-02-28T09:03:42;1.60;;;0.98;;
55609;SDS011;41486;52.502;13.486;2023-02-28T09:06:12;14.50;;;2.03;;
55609;SDS011;41486;52.502;13.486;2023-02-28T09:08:41;2.15;;;1.40;;
55609;SDS011;41486;52.502;13.486;2023-02-28T09:11:09;3.92;;;1.60;;
55609;SDS011;41486;52.502;13.486;2023-02-28T09:13:38;3.35;;;2.28;;
55609;SDS011;41486;52.502;13.486;2023-02-28T09:16:09;7.13;;;2.60;;
55609;SDS011;41486;52.502;13.486;2023-02-28T09:18:40;13.50;;;4.97;;
55609;SDS011;41486;52.502;13.486;2023-02-28T09:21:09;3.63;;;2.20;;
55609;SDS011;41486;52.502;13.486;2023-02-28T09:23:40;1.70;;;1.13;;
55609;SDS011;41486;52.502;13.486;2023-02-28T09:26:12;3.92;;;1.67;;
55609;SDS011;41486;52.502;13.486;2023-02-28T09:28:41;2.60;;;1.38;;
55609;SDS011;41486;52.502;13.486;2023-02-28T09:31:14;1.88;;;1.20;;
55609;SDS011;41486;52.502;13.486;2023-02-28T09:33:47;2.97;;;1.50;;
55609;SDS011;41486;52.502;13.486;2023-02-28T09:36:15;3.17;;;1.70;;
55609;SDS011;41486;52.502;13.486;2023-02-28T09:38:44;4.55;;;2.78;;
55609;SDS011;41486;52.502;13.486;2023-02-28T09:41:15;3.30;;;1.77;;
55609;SDS011;41486;52.502;13.486;2023-02-28T09:43:46;2.03;;;1.38;;
55609;SDS011;41486;52.502;13.486;2023-02-28T09:46:29;3.72;;;1.67;;
55609;SDS011;41486;52.502;13.486;2023-02-28T09:51:37;5.00;;;1.48;;
55609;SDS011;41486;52.502;13.486;2023-02-28T09:54:14;1.67;;;1.23;;
55609;SDS011;41486;52.502;13.486;2023-02-28T09:56:45;2.50;;;1.13;;
55609;SDS011;41486;52.502;13.486;2023-02-28T09:59:24;3.40;;;1.58;;
55609;SDS011;41486;52.502;13.486;2023-02-28T10:02:02;1.95;;;1.15;;
55609;SDS011;41486;52.502;13.486;2023-02-28T10:04:42;8.32;;;1.52;;
55609;SDS011;41486;52.502;13.486;2023-02-28T10:07:21;1.50;;;1.10;;
55609;SDS011;41486;52.502;13.486;2023-02-28T10:09:58;3.05;;;1.10;;
55609;SDS011;41486;52.502;13.486;2023-02-28T10:12:31;2.53;;;1.10;;
55609;SDS011;41486;52.502;13.486;2023-02-28T10:15:00;1.85;;;0.90;;
55609;SDS011;41486;52.502;13.486;2023-02-28T10:17:35;7.80;;;1.00;;
55609;SDS011;41486;52.502;13.486;2023-02-28T10:20:21;1.15;;;0.93;;
55609;SDS011;41486;52.502;13.486;2023-02-28T10:23:02;4.13;;;1.52;;
55609;SDS011;41486;52.502;13.486;2023-02-28T10:25:36;6.75;;;3.17;;
55609;SDS011;41486;52.502;13.486;2023-02-28T10:28:09;3.33;;;1.73;;
55609;SDS011;41486;52.502;13.486;2023-02-28T10:30:40;3.75;;;1.70;;
55609;SDS011;41486;52.502;13.486;2023-02-28T10:33:17;3.42;;;2.20;;
55609;SDS011;41486;52.502;13.486;2023-02-28T10:35:55;3.55;;;1.65;;
55609;SDS011;41486;52.502;13.486;2023-02-28T10:38:25;5.18;;;1.98;;
55609;SDS011;41486;52.502;13.486;2023-02-28T10:41:03;2.33;;;1.30;;
55609;SDS011;41486;52.502;13.486;2023-02-28T10:43:32;3.08;;;1.30;;
55609;SDS011;41486;52.502;13.486;2023-02-28T10:46:02;2.50;;;1.20;;
55609;SDS011;41486;52.502;13.486;2023-02-28T10:48:37;2.05;;;1.30;;
55609;SDS011;41486;52.502;13.486;2023-02-28T10:51:09;3.35;;;1.10;;
55609;SDS011;41486;52.502;13.486;2023-02-28T10:53:45;2.58;;;1.30;;
55609;SDS011;41486;52.502;13.486;2023-02-28T10:56:27;3.05;;;1.40;;
55609;SDS011;41486;52.502;13.486;2023-02-28T10:58:58;2.55;;;1.33;;
55609;SDS011;41486;52.502;13.486;2023-02-28T11:01:35;1.90;;;1.45;;
55609;SDS011;41486;52.502;13.486;2023-02-28T11:04:19;3.72;;;1.73;;
55609;SDS011;41486;52.502;13.486;2023-02-28T11:07:00;3.78;;;1.45;;
55609;SDS011;41486;52.502;13.486;2023-02-28T11:09:32;2.08;;;1.40;;
55609;SDS011;41486;52.502;13.486;2023-02-28T11:12:02;6.25;;;1.85;;
55609;SDS011;41486;52.502;13.486;2023-02-28T11:14:35;5.43;;;1.80;;
55609;SDS011;41486;52.502;13.486;2023-02-28T11:17:13;2.10;;;1.60;;
55609;SDS011;41486;52.502;13.486;2023-02-28T11:19:49;1.90;;;1.50;;
55609;SDS011;41486;52.502;13.486;2023-02-28T11:22:21;3.15;;;1.70;;
55609;SDS011;41486;52.502;13.486;2023-02-28T11:24:56;12.93;;;6.82;;
55609;SDS011;41486;52.502;13.486;2023-02-28T11:30:32;6.97;;;2.47;;
55609;SDS011;41486;52.502;13.486;2023-02-28T11:33:14;10.20;;;2.83;;
55609;SDS011;41486;52.502;13.486;2023-02-28T11:35:50;2.33;;;1.55;;
55609;SDS011;41486;52.502;13.486;2023-02-28T11:38:20;4.13;;;2.05;;
55609;SDS011;41486;52.502;13.486;2023-02-28T11:40:50;2.00;;;1.48;;
55609;SDS011;41486;52.502;13.486;2023-02-28T11:43:34;2.15;;;1.10;;
55609;SDS011;41486;52.502;13.486;2023-02-28T11:46:19;2.45;;;1.70;;
55609;SDS011;41486;52.502;13.486;2023-02-28T11:48:57;1.77;;;1.38;;
55609;SDS011;41486;52.502;13.486;2023-02-28T11:51:35;4.13;;;1.48;;
55609;SDS011;41486;52.502;13.486;2023-02-28T11:54:28;1.65;;;1.20;;
55609;SDS011;41486;52.502;13.486;2023-02-28T11:57:11;6.50;;;2.33;;
55609;SDS011;41486;52.502;13.486;2023-02-28T11:59:56;4.38;;;1.27;;
55609;SDS011;41486;52.502;13.486;2023-02-28T12:02:41;2.85;;;1.33;;
55609;SDS011;41486;52.502;13.486;2023-02-28T12:05:26;1.52;;;1.10;;
55609;SDS011;41486;52.502;13.486;2023-02-28T12:08:06;2.55;;;1.73;;
55609;SDS011;41486;52.502;13.486;2023-02-28T12:10:51;6.22;;;2.20;;
55609;SDS011;41486;52.502;13.486;2023-02-28T12:13:34;7.43;;;4.47;;
55609;SDS011;41486;52.502;13.486;2023-02-28T12:16:16;3.10;;;1.92;;
55609;SDS011;41486;52.502;13.486;2023-02-28T12:19:07;2.45;;;1.30;;
55609;SDS011;41486;52.502;13.486;2023-02-28T12:21:48;2.53;;;1.50;;
55609;SDS011;41486;52.502;13.486;2023-02-28T12:24:39;6.70;;;2.22;;
55609;SDS011;41486;52.502;13.486;2023-02-28T12:27:21;1.92;;;1.25;;
55609;SDS011;41486;52.502;13.486;2023-02-28T12:29:55;7.45;;;1.90;;
55609;SDS011;41486;52.502;13.486;2023-02-28T12:32:29;4.97;;;1.52;;
55609;SDS011;41486;52.502;13.486;2023-02-28T12:35:01;3.38;;;1.73;;
55609;SDS011;41486;52.502;13.486;2023-02-28T12:37:34;3.33;;;1.35;;
55609;SDS011;41486;52.502;13.486;2023-02-28T12:40:15;3.38;;;1.60;;
55609;SDS011;41486;52.502;13.486;2023-02-28T12:42:48;1.77;;;1.15;;
55609;SDS011;41486;52.502;13.486;2023-02-28T12:45:20;2.13;;;1.15;;
55609;SDS011;41486;52.502;13.486;2023-02-28T12:47:51;1.90;;;1.40;;
55609;SDS011;41486;52.502;13.486;2023-02-28T12:50:24;3.45;;;1.58;;
55609;SDS011;41486;52.502;13.486;2023-02-28T12:52:54;2.35;;;1.75;;
55609;SDS011;41486;52.502;13.486;2023-02-28T12:55:29;2.22;;;1.35;;
55609;SDS011;41486;52.502;13.486;2023-02-28T12:58:08;2.13;;;1.42;;
55609;SDS011;41486;52.502;13.486;2023-02-28T13:00:46;2.58;;;1.50;;
55609;SDS011;41486;52.502;13.486;2023-02-28T13:03:34;2.53;;;1.35;;
55609;SDS011;41486;52.502;13.486;2023-02-28T13:06:25;2.28;;;1.50;;
55609;SDS011;41486;52.502;13.486;2023-02-28T13:09:09;5.28;;;1.85;;
55609;SDS011;41486;52.502;13.486;2023-02-28T13:11:43;2.80;;;1.30;;
55609;SDS011;41486;52.502;13.486;2023-02-28T13:14:18;2.70;;;1.80;;
55609;SDS011;41486;52.502;13.486;2023-02-28T13:16:54;4.03;;;1.50;;
55609;SDS011;41486;52.502;13.486;2023-02-28T13:21:55;2.95;;;1.60;;
55609;SDS011;41486;52.502;13.486;2023-02-28T13:24:38;1.92;;;1.58;;
55609;SDS011;41486;52.502;13.486;2023-02-28T13:33:26;2.47;;;1.60;;
55609;SDS011;41486;52.502;13.486;2023-02-28T13:36:07;2.38;;;1.50;;
55609;SDS011;41486;52.502;13.486;2023-02-28T13:38:50;3.80;;;1.67;;
55609;SDS011;41486;52.502;13.486;2023-02-28T13:49:52;3.05;;;1.63;;
55609;SDS011;41486;52.502;13.486;2023-02-28T13:52:23;3.08;;;2.03;;
55609;SDS011;41486;52.502;13.486;2023-02-28T13:54:57;2.35;;;1.35;;
55609;SDS011;41486;52.502;13.486;2023-02-28T13:58:04;2.45;;;1.70;;
55609;SDS011;41486;52.502;13.486;2023-02-28T14:00:58;2.97;;;1.90;;
55609;SDS011;41486;52.502;13.486;2023-02-28T14:03:41;2.92;;;2.30;;
55609;SDS011;41486;52.502;13.486;2023-02-28T14:06:22;4.78;;;2.47;;
55609;SDS011;41486;52.502;13.486;2023-02-28T14:08:56;2.17;;;1.35;;
55609;SDS011;41486;52.502;13.486;2023-02-28T14:11:28;5.25;;;1.88;;
55609;SDS011;41486;52.502;13.486;2023-02-28T14:13:59;2.60;;;1.77;;
55609;SDS011;41486;52.502;13.486;2023-02-28T14:16:35;3.20;;;2.05;;
55609;SDS011;41486;52.502;13.486;2023-02-28T14:19:10;3.17;;;1.75;;
55609;SDS011;41486;52.502;13.486;2023-02-28T14:27:29;2.95;;;1.80;;
55609;SDS011;41486;52.502;13.486;2023-02-28T14:33:22;4.40;;;2.22;;
55609;SDS011;41486;52.502;13.486;2023-02-28T14:35:59;6.03;;;1.77;;
55609;SDS011;41486;52.502;13.486;2023-02-28T14:38:36;5.35;;;2.35;;
55609;SDS011;41486;52.502;13.486;2023-02-28T14:41:14;4.18;;;2.33;;
55609;SDS011;41486;52.502;13.486;2023-02-28T14:43:48;12.68;;;6.20;;
55609;SDS011;41486;52.502;13.486;2023-02-28T14:46:18;3.50;;;1.85;;
55609;SDS011;41486;52.502;13.486;2023-02-28T14:48:49;2.72;;;1.33;;
55609;SDS011;41486;52.502;13.486;2023-02-28T14:51:20;2.50;;;1.80;;
55609;SDS011;41486;52.502;13.486;2023-02-28T14:53:51;3.40;;;2.10;;
55609;SDS011;41486;52.502;13.486;2023-02-28T14:56:26;3.90;;;1.77;;
55609;SDS011;41486;52.502;13.486;2023-02-28T14:59:03;2.67;;;1.90;;
55609;SDS011;41486;52.502;13.486;2023-02-28T15:01:39;4.97;;;2.30;;
55609;SDS011;41486;52.502;13.486;2023-02-28T15:04:16;2.40;;;1.75;;
55609;SDS011;41486;52.502;13.486;2023-02-28T15:07:08;3.45;;;1.90;;
55609;SDS011;41486;52.502;13.486;2023-02-28T15:09:37;3.53;;;1.90;;
55609;SDS011;41486;52.502;13.486;2023-02-28T15:12:05;4.82;;;1.48;;
55609;SDS011;41486;52.502;13.486;2023-02-28T15:14:37;2.30;;;1.60;;
55609;SDS011;41486;52.502;13.486;2023-02-28T15:17:14;2.73;;;1.70;;
55609;SDS011;41486;52.502;13.486;2023-02-28T15:19:51;3.08;;;1.73;;
55609;SDS011;41486;52.502;13.486;2023-02-28T15:22:23;2.28;;;1.40;;
55609;SDS011;41486;52.502;13.486;2023-02-28T15:24:56;2.85;;;1.50;;
55609;SDS011;41486;52.502;13.486;2023-02-28T15:27:27;4.55;;;1.77;;
55609;SDS011;41486;52.502;13.486;2023-02-28T15:29:59;3.78;;;2.15;;
55609;SDS011;41486;52.502;13.486;2023-02-28T15:32:35;2.20;;;1.23;;
55609;SDS011;41486;52.502;13.486;2023-02-28T15:37:57;3.53;;;1.60;;
55609;SDS011;41486;52.502;13.486;2023-02-28T15:40:29;3.03;;;1.67;;
55609;SDS011;41486;52.502;13.486;2023-02-28T15:43:02;2.65;;;1.60;;
55609;SDS011;41486;52.502;13.486;2023-02-28T15:45:36;7.50;;;3.17;;
55609;SDS011;41486;52.502;13.486;2023-02-28T15:48:14;5.97;;;2.03;;
55609;SDS011;41486;52.502;13.486;2023-02-28T15:50:54;1.90;;;1.40;;
55609;SDS011;41486;52.502;13.486;2023-02-28T15:53:25;3.30;;;1.92;;
55609;SDS011;41486;52.502;13.486;2023-02-28T15:56:02;2.90;;;1.67;;
55609;SDS011;41486;52.502;13.486;2023-02-28T15:58:34;1.33;;;1.17;;